sensor_id;sensor_type;location;lat;lon;timestamp;P1;durP1;ratioP1;P2;durP2;ratioP2
35961;SDS011;22044;48.298;10.008;2023-08-21T00:00:03;9.75;;;8.82;;
35961;SDS011;22044;48.298;10.008;2023-08-21T00:02:50;10.52;;;9.35;;
35961;SDS011;22044;48.298;10.008;2023-08-21T00:05:35;10.13;;;8.43;;
35961;SDS011;22044;48.298;10.008;2023-08-21T00:08:21;11.38;;;8.75;;
35961;SDS011;22044;48.298;10.008;2023-08-21T00:11:06;10.70;;;8.80;;
35961;SDS011;22044;48.298;10.008;2023-08-21T00:13:53;10.77;;;8.52;;
35961;SDS011;22044;48.298;10.008;2023-08-21T00:16:39;10.10;;;8.57;;
35961;SDS011;22044;48.298;10.008;2023-08-21T00:19:24;10.00;;;9.00;;
35961;SDS011;22044;48.298;10.008;2023-08-21T00:22:10;10.13;;;9.13;;
35961;SDS011;22044;48.298;10.008;2023-08-21T00:24:55;10.07;;;8.63;;
35961;SDS011;22044;48.298;10.008;2023-08-21T00:27:41;13.88;;;9.77;;
35961;SDS011;22044;48.298;10.008;2023-08-21T00:30:28;10.27;;;8.85;;
35961;SDS011;22044;48.298;10.008;2023-08-21T00:33:13;10.20;;;9.30;;
35961;SDS011;22044;48.298;10.008;2023-08-21T00:35:59;11.65;;;9.05;;
35961;SDS011;22044;48.298;10.008;2023-08-21T00:38:44;9.40;;;8.50;;
35961;SDS011;22044;48.298;10.008;2023-08-21T00:41:31;11.68;;;8.90;;
35961;SDS011;22044;48.298;10.008;2023-08-21T00:44:18;9.13;;;8.13;;
35961;SDS011;22044;48.298;10.008;2023-08-21T00:47:05;9.43;;;8.40;;
35961;SDS011;22044;48.298;10.008;2023-08-21T00:49:51;10.55;;;9.02;;
35961;SDS011;22044;48.298;10.008;2023-08-21T00:52:37;10.02;;;8.88;;
35961;SDS011;22044;48.298;10.008;2023-08-21T00:55:24;13.35;;;9.43;;
35961;SDS011;22044;48.298;10.008;2023-08-21T00:58:10;14.45;;;9.60;;
35961;SDS011;22044;48.298;10.008;2023-08-21T01:00:56;9.75;;;8.80;;
35961;SDS011;22044;48.298;10.008;2023-08-21T01:03:44;10.52;;;9.35;;
35961;SDS011;22044;48.298;10.008;2023-08-21T01:06:29;10.57;;;9.52;;
35961;SDS011;22044;48.298;10.008;2023-08-21T01:09:17;10.65;;;9.68;;
35961;SDS011;22044;48.298;10.008;2023-08-21T01:12:12;10.60;;;9.35;;
35961;SDS011;22044;48.298;10.008;2023-08-21T01:15:07;9.90;;;8.93;;
35961;SDS011;22044;48.298;10.008;2023-08-21T01:17:53;9.65;;;8.60;;
35961;SDS011;22044;48.298;10.008;2023-08-21T01:20:42;10.10;;;9.05;;
35961;SDS011;22044;48.298;10.008;2023-08-21T01:23:30;11.05;;;9.75;;
35961;SDS011;22044;48.298;10.008;2023-08-21T01:26:17;10.85;;;9.68;;
35961;SDS011;22044;48.298;10.008;2023-08-21T01:29:02;10.35;;;8.93;;
35961;SDS011;22044;48.298;10.008;2023-08-21T01:31:50;9.63;;;8.82;;
35961;SDS011;22044;48.298;10.008;2023-08-21T01:34:40;11.80;;;9.75;;
35961;SDS011;22044;48.298;10.008;2023-08-21T01:37:27;12.40;;;9.93;;
35961;SDS011;22044;48.298;10.008;2023-08-21T01:40:15;10.10;;;9.05;;
35961;SDS011;22044;48.298;10.008;2023-08-21T01:43:06;18.50;;;9.60;;
35961;SDS011;22044;48.298;10.008;2023-08-21T01:45:51;9.65;;;8.63;;
35961;SDS011;22044;48.298;10.008;2023-08-21T01:48:37;10.15;;;9.18;;
35961;SDS011;22044;48.298;10.008;2023-08-21T01:51:23;10.40;;;9.40;;
35961;SDS011;22044;48.298;10.008;2023-08-21T01:54:08;11.13;;;9.27;;
35961;SDS011;22044;48.298;10.008;2023-08-21T01:56:55;11.40;;;9.00;;
35961;SDS011;22044;48.298;10.008;2023-08-21T01:59:40;10.95;;;9.88;;
35961;SDS011;22044;48.298;10.008;2023-08-21T02:02:26;10.15;;;9.23;;
35961;SDS011;22044;48.298;10.008;2023-08-21T02:05:12;10.23;;;9.27;;
35961;SDS011;22044;48.298;10.008;2023-08-21T02:07:57;10.70;;;9.70;;
35961;SDS011;22044;48.298;10.008;2023-08-21T02:10:49;12.02;;;9.10;;
35961;SDS011;22044;48.298;10.008;2023-08-21T02:13:36;16.02;;;9.98;;
35961;SDS011;22044;48.298;10.008;2023-08-21T02:16:22;10.55;;;9.43;;
35961;SDS011;22044;48.298;10.008;2023-08-21T02:19:07;11.40;;;10.13;;
35961;SDS011;22044;48.298;10.008;2023-08-21T02:21:52;10.40;;;9.40;;
35961;SDS011;22044;48.298;10.008;2023-08-21T02:24:38;10.85;;;9.85;;
35961;SDS011;22044;48.298;10.008;2023-08-21T02:27:24;11.18;;;9.90;;
35961;SDS011;22044;48.298;10.008;2023-08-21T02:30:11;12.07;;;9.98;;
35961;SDS011;22044;48.298;10.008;2023-08-21T02:32:57;10.43;;;9.43;;
35961;SDS011;22044;48.298;10.008;2023-08-21T02:35:42;12.18;;;10.10;;
35961;SDS011;22044;48.298;10.008;2023-08-21T02:38:28;16.95;;;9.73;;
35961;SDS011;22044;48.298;10.008;2023-08-21T02:41:14;10.38;;;9.30;;
35961;SDS011;22044;48.298;10.008;2023-08-21T02:44:02;10.40;;;9.43;;
35961;SDS011;22044;48.298;10.008;2023-08-21T02:46:49;11.65;;;9.88;;
35961;SDS011;22044;48.298;10.008;2023-08-21T02:49:34;13.02;;;9.45;;
35961;SDS011;22044;48.298;10.008;2023-08-21T02:52:20;11.82;;;9.07;;
35961;SDS011;22044;48.298;10.008;2023-08-21T02:55:07;9.23;;;8.43;;
35961;SDS011;22044;48.298;10.008;2023-08-21T02:57:53;10.52;;;9.60;;
35961;SDS011;22044;48.298;10.008;2023-08-21T03:00:38;9.80;;;8.90;;
35961;SDS011;22044;48.298;10.008;2023-08-21T03:03:25;10.75;;;9.65;;
35961;SDS011;22044;48.298;10.008;2023-08-21T03:06:12;12.52;;;10.25;;
35961;SDS011;22044;48.298;10.008;2023-08-21T03:09:00;10.40;;;9.20;;
35961;SDS011;22044;48.298;10.008;2023-08-21T03:11:45;10.77;;;9.48;;
35961;SDS011;22044;48.298;10.008;2023-08-21T03:14:33;11.02;;;9.45;;
35961;SDS011;22044;48.298;10.008;2023-08-21T03:17:19;12.43;;;9.30;;
35961;SDS011;22044;48.298;10.008;2023-08-21T03:20:07;10.43;;;9.40;;
35961;SDS011;22044;48.298;10.008;2023-08-21T03:22:53;11.70;;;9.50;;
35961;SDS011;22044;48.298;10.008;2023-08-21T03:25:40;11.25;;;9.43;;
35961;SDS011;22044;48.298;10.008;2023-08-21T03:28:26;10.00;;;9.05;;
35961;SDS011;22044;48.298;10.008;2023-08-21T03:31:11;15.43;;;10.00;;
35961;SDS011;22044;48.298;10.008;2023-08-21T03:33:57;9.95;;;9.05;;
35961;SDS011;22044;48.298;10.008;2023-08-21T03:36:44;11.00;;;9.85;;
35961;SDS011;22044;48.298;10.008;2023-08-21T03:39:30;10.90;;;9.43;;
35961;SDS011;22044;48.298;10.008;2023-08-21T03:42:16;11.00;;;9.88;;
35961;SDS011;22044;48.298;10.008;2023-08-21T03:45:03;11.68;;;9.98;;
35961;SDS011;22044;48.298;10.008;2023-08-21T03:47:49;11.15;;;9.75;;
35961;SDS011;22044;48.298;10.008;2023-08-21T03:50:37;11.35;;;9.77;;
35961;SDS011;22044;48.298;10.008;2023-08-21T03:53:24;11.88;;;10.15;;
35961;SDS011;22044;48.298;10.008;2023-08-21T03:56:09;11.32;;;9.90;;
35961;SDS011;22044;48.298;10.008;2023-08-21T03:58:55;14.23;;;10.27;;
35961;SDS011;22044;48.298;10.008;2023-08-21T04:01:40;11.27;;;9.60;;
35961;SDS011;22044;48.298;10.008;2023-08-21T04:04:27;11.35;;;10.23;;
35961;SDS011;22044;48.298;10.008;2023-08-21T04:07:13;11.07;;;10.02;;
35961;SDS011;22044;48.298;10.008;2023-08-21T04:10:00;11.52;;;10.13;;
35961;SDS011;22044;48.298;10.008;2023-08-21T04:12:46;14.93;;;9.85;;
35961;SDS011;22044;48.298;10.008;2023-08-21T04:15:33;12.27;;;10.20;;
35961;SDS011;22044;48.298;10.008;2023-08-21T04:18:22;12.20;;;10.93;;
35961;SDS011;22044;48.298;10.008;2023-08-21T04:21:08;10.77;;;9.70;;
35961;SDS011;22044;48.298;10.008;2023-08-21T04:23:54;11.77;;;10.02;;
35961;SDS011;22044;48.298;10.008;2023-08-21T04:26:41;10.48;;;9.38;;
35961;SDS011;22044;48.298;10.008;2023-08-21T04:29:27;10.57;;;9.52;;
35961;SDS011;22044;48.298;10.008;2023-08-21T04:32:12;13.70;;;9.75;;
35961;SDS011;22044;48.298;10.008;2023-08-21T04:34:59;10.80;;;9.80;;
35961;SDS011;22044;48.298;10.008;2023-08-21T04:37:46;10.63;;;9.43;;
35961;SDS011;22044;48.298;10.008;2023-08-21T04:40:34;11.85;;;9.77;;
35961;SDS011;22044;48.298;10.008;2023-08-21T04:43:22;10.90;;;9.20;;
35961;SDS011;22044;48.298;10.008;2023-08-21T04:46:08;11.70;;;10.43;;
35961;SDS011;22044;48.298;10.008;2023-08-21T04:48:57;12.00;;;10.15;;
35961;SDS011;22044;48.298;10.008;2023-08-21T04:51:42;10.95;;;9.88;;
35961;SDS011;22044;48.298;10.008;2023-08-21T04:54:28;13.85;;;10.18;;
35961;SDS011;22044;48.298;10.008;2023-08-21T04:57:14;12.20;;;10.85;;
35961;SDS011;22044;48.298;10.008;2023-08-21T05:00:02;11.25;;;10.15;;
35961;SDS011;22044;48.298;10.008;2023-08-21T05:02:53;13.40;;;10.40;;
35961;SDS011;22044;48.298;10.008;2023-08-21T05:05:41;11.15;;;9.82;;
35961;SDS011;22044;48.298;10.008;2023-08-21T05:08:27;10.50;;;9.45;;
35961;SDS011;22044;48.298;10.008;2023-08-21T05:11:12;11.20;;;9.80;;
35961;SDS011;22044;48.298;10.008;2023-08-21T05:14:00;10.93;;;9.93;;
35961;SDS011;22044;48.298;10.008;2023-08-21T05:16:48;11.82;;;10.23;;
35961;SDS011;22044;48.298;10.008;2023-08-21T05:19:33;10.82;;;9.70;;
35961;SDS011;22044;48.298;10.008;2023-08-21T05:22:19;11.98;;;10.40;;
35961;SDS011;22044;48.298;10.008;2023-08-21T05:25:06;10.48;;;9.48;;
35961;SDS011;22044;48.298;10.008;2023-08-21T05:27:52;10.40;;;9.38;;
35961;SDS011;22044;48.298;10.008;2023-08-21T05:30:38;9.60;;;8.80;;
35961;SDS011;22044;48.298;10.008;2023-08-21T05:33:25;11.85;;;10.65;;
35961;SDS011;22044;48.298;10.008;2023-08-21T05:36:11;12.30;;;11.18;;
35961;SDS011;22044;48.298;10.008;2023-08-21T05:38:57;15.55;;;11.27;;
35961;SDS011;22044;48.298;10.008;2023-08-21T05:41:45;14.23;;;11.27;;
35961;SDS011;22044;48.298;10.008;2023-08-21T05:44:31;12.27;;;11.18;;
35961;SDS011;22044;48.298;10.008;2023-08-21T05:47:17;11.85;;;10.70;;
35961;SDS011;22044;48.298;10.008;2023-08-21T05:50:05;14.15;;;12.57;;
35961;SDS011;22044;48.298;10.008;2023-08-21T05:52:50;13.25;;;11.65;;
35961;SDS011;22044;48.298;10.008;2023-08-21T05:55:38;12.68;;;11.38;;
35961;SDS011;22044;48.298;10.008;2023-08-21T05:58:23;13.93;;;12.45;;
35961;SDS011;22044;48.298;10.008;2023-08-21T06:01:12;13.45;;;12.35;;
35961;SDS011;22044;48.298;10.008;2023-08-21T06:03:59;13.93;;;11.68;;
35961;SDS011;22044;48.298;10.008;2023-08-21T06:06:56;13.63;;;12.30;;
35961;SDS011;22044;48.298;10.008;2023-08-21T06:09:42;13.90;;;12.60;;
35961;SDS011;22044;48.298;10.008;2023-08-21T06:12:28;14.95;;;13.30;;
35961;SDS011;22044;48.298;10.008;2023-08-21T06:15:15;12.73;;;11.43;;
35961;SDS011;22044;48.298;10.008;2023-08-21T06:18:01;13.05;;;11.75;;
35961;SDS011;22044;48.298;10.008;2023-08-21T06:20:46;14.38;;;12.60;;
35961;SDS011;22044;48.298;10.008;2023-08-21T06:23:38;12.82;;;11.52;;
35961;SDS011;22044;48.298;10.008;2023-08-21T06:26:23;12.32;;;11.23;;
35961;SDS011;22044;48.298;10.008;2023-08-21T06:29:09;13.88;;;12.48;;
35961;SDS011;22044;48.298;10.008;2023-08-21T06:31:54;16.45;;;12.88;;
35961;SDS011;22044;48.298;10.008;2023-08-21T06:34:42;15.20;;;13.35;;
35961;SDS011;22044;48.298;10.008;2023-08-21T06:37:27;14.93;;;13.10;;
35961;SDS011;22044;48.298;10.008;2023-08-21T06:40:14;14.73;;;12.48;;
35961;SDS011;22044;48.298;10.008;2023-08-21T06:43:00;13.55;;;11.93;;
35961;SDS011;22044;48.298;10.008;2023-08-21T06:45:50;13.75;;;12.35;;
35961;SDS011;22044;48.298;10.008;2023-08-21T06:48:37;14.23;;;12.80;;
35961;SDS011;22044;48.298;10.008;2023-08-21T06:51:24;13.73;;;12.40;;
35961;SDS011;22044;48.298;10.008;2023-08-21T06:54:10;14.82;;;12.00;;
35961;SDS011;22044;48.298;10.008;2023-08-21T06:56:57;13.48;;;11.20;;
35961;SDS011;22044;48.298;10.008;2023-08-21T06:59:43;14.10;;;12.60;;
35961;SDS011;22044;48.298;10.008;2023-08-21T07:02:28;15.05;;;13.55;;
35961;SDS011;22044;48.298;10.008;2023-08-21T07:05:14;16.40;;;12.80;;
35961;SDS011;22044;48.298;10.008;2023-08-21T07:07:59;13.32;;;12.05;;
35961;SDS011;22044;48.298;10.008;2023-08-21T07:10:45;14.93;;;13.40;;
35961;SDS011;22044;48.298;10.008;2023-08-21T07:13:32;15.35;;;13.77;;
35961;SDS011;22044;48.298;10.008;2023-08-21T07:16:17;13.98;;;12.60;;
35961;SDS011;22044;48.298;10.008;2023-08-21T07:19:03;13.60;;;12.18;;
35961;SDS011;22044;48.298;10.008;2023-08-21T07:21:49;14.55;;;12.50;;
35961;SDS011;22044;48.298;10.008;2023-08-21T07:24:34;12.90;;;11.25;;
35961;SDS011;22044;48.298;10.008;2023-08-21T07:27:20;14.38;;;12.93;;
35961;SDS011;22044;48.298;10.008;2023-08-21T07:30:07;18.55;;;12.27;;
35961;SDS011;22044;48.298;10.008;2023-08-21T07:32:59;14.23;;;10.95;;
35961;SDS011;22044;48.298;10.008;2023-08-21T07:35:46;16.73;;;12.70;;
35961;SDS011;22044;48.298;10.008;2023-08-21T07:38:32;11.70;;;10.57;;
35961;SDS011;22044;48.298;10.008;2023-08-21T07:41:18;13.20;;;11.10;;
35961;SDS011;22044;48.298;10.008;2023-08-21T07:44:03;12.38;;;11.30;;
35961;SDS011;22044;48.298;10.008;2023-08-21T07:46:51;14.07;;;11.98;;
35961;SDS011;22044;48.298;10.008;2023-08-21T07:49:36;13.52;;;11.38;;
35961;SDS011;22044;48.298;10.008;2023-08-21T07:52:22;11.68;;;10.48;;
35961;SDS011;22044;48.298;10.008;2023-08-21T07:55:08;13.38;;;11.98;;
35961;SDS011;22044;48.298;10.008;2023-08-21T07:57:53;14.18;;;12.07;;
35961;SDS011;22044;48.298;10.008;2023-08-21T08:00:39;12.55;;;11.25;;
35961;SDS011;22044;48.298;10.008;2023-08-21T08:03:26;12.02;;;10.75;;
35961;SDS011;22044;48.298;10.008;2023-08-21T08:06:11;12.30;;;11.10;;
35961;SDS011;22044;48.298;10.008;2023-08-21T08:08:57;12.77;;;10.65;;
35961;SDS011;22044;48.298;10.008;2023-08-21T08:11:43;12.90;;;11.68;;
35961;SDS011;22044;48.298;10.008;2023-08-21T08:14:28;12.48;;;11.15;;
35961;SDS011;22044;48.298;10.008;2023-08-21T08:17:14;13.35;;;11.23;;
35961;SDS011;22044;48.298;10.008;2023-08-21T08:20:01;11.48;;;10.27;;
35961;SDS011;22044;48.298;10.008;2023-08-21T08:22:47;12.00;;;9.93;;
35961;SDS011;22044;48.298;10.008;2023-08-21T08:25:33;12.43;;;10.10;;
35961;SDS011;22044;48.298;10.008;2023-08-21T08:28:18;12.50;;;10.98;;
35961;SDS011;22044;48.298;10.008;2023-08-21T08:31:04;9.88;;;8.75;;
35961;SDS011;22044;48.298;10.008;2023-08-21T08:33:49;11.68;;;10.65;;
35961;SDS011;22044;48.298;10.008;2023-08-21T08:36:37;10.57;;;9.52;;
35961;SDS011;22044;48.298;10.008;2023-08-21T08:39:25;10.95;;;10.05;;
35961;SDS011;22044;48.298;10.008;2023-08-21T08:42:11;12.43;;;9.38;;
35961;SDS011;22044;48.298;10.008;2023-08-21T08:44:57;9.98;;;8.00;;
35961;SDS011;22044;48.298;10.008;2023-08-21T08:47:47;14.13;;;9.40;;
35961;SDS011;22044;48.298;10.008;2023-08-21T08:50:32;9.15;;;8.25;;
35961;SDS011;22044;48.298;10.008;2023-08-21T08:53:20;9.20;;;8.23;;
35961;SDS011;22044;48.298;10.008;2023-08-21T08:56:07;9.05;;;8.15;;
35961;SDS011;22044;48.298;10.008;2023-08-21T08:58:53;12.25;;;9.10;;
35961;SDS011;22044;48.298;10.008;2023-08-21T09:01:38;10.35;;;9.48;;
35961;SDS011;22044;48.298;10.008;2023-08-21T09:04:24;10.15;;;8.75;;
35961;SDS011;22044;48.298;10.008;2023-08-21T09:07:10;12.40;;;9.05;;
35961;SDS011;22044;48.298;10.008;2023-08-21T09:09:58;9.38;;;8.35;;
35961;SDS011;22044;48.298;10.008;2023-08-21T09:12:45;11.77;;;8.32;;
35961;SDS011;22044;48.298;10.008;2023-08-21T09:15:31;11.52;;;8.63;;
35961;SDS011;22044;48.298;10.008;2023-08-21T09:18:17;10.65;;;8.25;;
35961;SDS011;22044;48.298;10.008;2023-08-21T09:21:02;7.70;;;6.93;;
35961;SDS011;22044;48.298;10.008;2023-08-21T09:23:48;7.55;;;6.82;;
35961;SDS011;22044;48.298;10.008;2023-08-21T09:26:42;7.35;;;6.13;;
35961;SDS011;22044;48.298;10.008;2023-08-21T09:29:30;9.25;;;7.95;;
35961;SDS011;22044;48.298;10.008;2023-08-21T09:32:23;8.07;;;7.10;;
35961;SDS011;22044;48.298;10.008;2023-08-21T09:35:12;10.07;;;7.32;;
35961;SDS011;22044;48.298;10.008;2023-08-21T09:37:58;8.27;;;7.50;;
35961;SDS011;22044;48.298;10.008;2023-08-21T09:40:50;10.32;;;7.72;;
35961;SDS011;22044;48.298;10.008;2023-08-21T09:43:41;10.35;;;7.78;;
35961;SDS011;22044;48.298;10.008;2023-08-21T09:46:27;9.45;;;7.88;;
35961;SDS011;22044;48.298;10.008;2023-08-21T09:49:13;9.60;;;7.30;;
35961;SDS011;22044;48.298;10.008;2023-08-21T09:52:00;10.63;;;8.60;;
35961;SDS011;22044;48.298;10.008;2023-08-21T09:54:46;10.13;;;8.30;;
35961;SDS011;22044;48.298;10.008;2023-08-21T09:57:32;13.77;;;8.65;;
35961;SDS011;22044;48.298;10.008;2023-08-21T10:00:19;9.13;;;7.82;;
35961;SDS011;22044;48.298;10.008;2023-08-21T10:03:06;8.20;;;7.28;;
35961;SDS011;22044;48.298;10.008;2023-08-21T10:05:55;10.48;;;8.32;;
35961;SDS011;22044;48.298;10.008;2023-08-21T10:08:44;11.38;;;8.00;;
35961;SDS011;22044;48.298;10.008;2023-08-21T10:11:32;7.88;;;7.18;;
35961;SDS011;22044;48.298;10.008;2023-08-21T10:14:18;8.05;;;7.35;;
35961;SDS011;22044;48.298;10.008;2023-08-21T10:17:07;8.25;;;7.18;;
35961;SDS011;22044;48.298;10.008;2023-08-21T10:19:53;11.05;;;7.72;;
35961;SDS011;22044;48.298;10.008;2023-08-21T10:22:39;7.35;;;6.75;;
35961;SDS011;22044;48.298;10.008;2023-08-21T10:25:28;8.45;;;7.07;;
35961;SDS011;22044;48.298;10.008;2023-08-21T10:28:14;11.23;;;7.75;;
35961;SDS011;22044;48.298;10.008;2023-08-21T10:34:16;8.27;;;7.57;;
35961;SDS011;22044;48.298;10.008;2023-08-21T10:37:05;7.95;;;7.13;;
35961;SDS011;22044;48.298;10.008;2023-08-21T10:39:54;10.25;;;7.05;;
35961;SDS011;22044;48.298;10.008;2023-08-21T10:42:41;7.63;;;6.93;;
35961;SDS011;22044;48.298;10.008;2023-08-21T10:45:27;8.25;;;6.60;;
35961;SDS011;22044;48.298;10.008;2023-08-21T10:48:12;8.00;;;7.20;;
35961;SDS011;22044;48.298;10.008;2023-08-21T10:50:59;6.65;;;5.95;;
35961;SDS011;22044;48.298;10.008;2023-08-21T10:53:48;7.30;;;6.32;;
35961;SDS011;22044;48.298;10.008;2023-08-21T10:56:33;8.63;;;5.93;;
35961;SDS011;22044;48.298;10.008;2023-08-21T10:59:19;6.93;;;6.18;;
35961;SDS011;22044;48.298;10.008;2023-08-21T11:02:05;6.85;;;6.35;;
35961;SDS011;22044;48.298;10.008;2023-08-21T11:04:50;7.28;;;6.55;;
35961;SDS011;22044;48.298;10.008;2023-08-21T11:07:38;7.15;;;6.45;;
35961;SDS011;22044;48.298;10.008;2023-08-21T11:10:27;6.93;;;6.28;;
35961;SDS011;22044;48.298;10.008;2023-08-21T11:13:14;7.35;;;6.65;;
35961;SDS011;22044;48.298;10.008;2023-08-21T11:16:00;8.13;;;6.55;;
35961;SDS011;22044;48.298;10.008;2023-08-21T11:18:46;8.13;;;6.97;;
35961;SDS011;22044;48.298;10.008;2023-08-21T11:21:31;7.30;;;6.60;;
35961;SDS011;22044;48.298;10.008;2023-08-21T11:24:18;9.05;;;7.15;;
35961;SDS011;22044;48.298;10.008;2023-08-21T11:27:05;7.07;;;6.43;;
35961;SDS011;22044;48.298;10.008;2023-08-21T11:29:51;9.85;;;6.55;;
35961;SDS011;22044;48.298;10.008;2023-08-21T11:32:37;7.30;;;6.53;;
35961;SDS011;22044;48.298;10.008;2023-08-21T11:35:23;6.88;;;6.18;;
35961;SDS011;22044;48.298;10.008;2023-08-21T11:38:14;8.13;;;6.55;;
35961;SDS011;22044;48.298;10.008;2023-08-21T11:41:05;7.72;;;6.53;;
35961;SDS011;22044;48.298;10.008;2023-08-21T11:43:51;8.25;;;6.72;;
35961;SDS011;22044;48.298;10.008;2023-08-21T11:46:36;7.60;;;6.50;;
35961;SDS011;22044;48.298;10.008;2023-08-21T11:49:22;7.55;;;6.72;;
35961;SDS011;22044;48.298;10.008;2023-08-21T11:52:08;7.68;;;6.93;;
35961;SDS011;22044;48.298;10.008;2023-08-21T11:54:54;9.25;;;6.93;;
35961;SDS011;22044;48.298;10.008;2023-08-21T11:57:47;7.00;;;6.40;;
35961;SDS011;22044;48.298;10.008;2023-08-21T12:00:33;7.28;;;6.57;;
35961;SDS011;22044;48.298;10.008;2023-08-21T12:03:19;7.47;;;6.43;;
35961;SDS011;22044;48.298;10.008;2023-08-21T12:06:05;7.35;;;6.65;;
35961;SDS011;22044;48.298;10.008;2023-08-21T12:08:52;10.40;;;6.97;;
35961;SDS011;22044;48.298;10.008;2023-08-21T12:11:38;9.07;;;6.35;;
35961;SDS011;22044;48.298;10.008;2023-08-21T12:14:25;6.95;;;6.30;;
35961;SDS011;22044;48.298;10.008;2023-08-21T12:17:12;6.53;;;6.03;;
35961;SDS011;22044;48.298;10.008;2023-08-21T12:19:58;6.97;;;6.38;;
35961;SDS011;22044;48.298;10.008;2023-08-21T12:22:43;6.68;;;5.70;;
35961;SDS011;22044;48.298;10.008;2023-08-21T12:25:29;7.20;;;5.93;;
35961;SDS011;22044;48.298;10.008;2023-08-21T12:28:15;8.35;;;6.15;;
35961;SDS011;22044;48.298;10.008;2023-08-21T12:31:02;10.88;;;6.25;;
35961;SDS011;22044;48.298;10.008;2023-08-21T12:33:48;6.95;;;6.25;;
35961;SDS011;22044;48.298;10.008;2023-08-21T12:36:34;8.60;;;5.60;;
35961;SDS011;22044;48.298;10.008;2023-08-21T12:39:20;7.95;;;6.00;;
35961;SDS011;22044;48.298;10.008;2023-08-21T12:42:06;6.22;;;5.65;;
35961;SDS011;22044;48.298;10.008;2023-08-21T12:44:51;6.47;;;5.88;;
35961;SDS011;22044;48.298;10.008;2023-08-21T12:47:38;7.10;;;6.40;;
35961;SDS011;22044;48.298;10.008;2023-08-21T12:50:24;7.28;;;6.20;;
35961;SDS011;22044;48.298;10.008;2023-08-21T12:53:10;7.05;;;6.20;;
35961;SDS011;22044;48.298;10.008;2023-08-21T12:55:55;9.30;;;6.97;;
35961;SDS011;22044;48.298;10.008;2023-08-21T12:58:41;6.25;;;5.65;;
35961;SDS011;22044;48.298;10.008;2023-08-21T13:01:27;5.93;;;5.43;;
35961;SDS011;22044;48.298;10.008;2023-08-21T13:04:14;6.60;;;5.80;;
35961;SDS011;22044;48.298;10.008;2023-08-21T13:06:59;8.07;;;6.55;;
35961;SDS011;22044;48.298;10.008;2023-08-21T13:09:47;7.55;;;6.72;;
35961;SDS011;22044;48.298;10.008;2023-08-21T13:12:32;7.80;;;6.80;;
35961;SDS011;22044;48.298;10.008;2023-08-21T13:15:18;7.03;;;5.80;;
35961;SDS011;22044;48.298;10.008;2023-08-21T13:18:04;8.57;;;6.10;;
35961;SDS011;22044;48.298;10.008;2023-08-21T13:20:51;7.05;;;6.45;;
35961;SDS011;22044;48.298;10.008;2023-08-21T13:23:36;6.25;;;5.75;;
35961;SDS011;22044;48.298;10.008;2023-08-21T13:26:22;10.38;;;6.22;;
35961;SDS011;22044;48.298;10.008;2023-08-21T13:29:09;8.00;;;6.30;;
35961;SDS011;22044;48.298;10.008;2023-08-21T13:31:54;7.05;;;6.30;;
35961;SDS011;22044;48.298;10.008;2023-08-21T13:34:40;7.32;;;6.07;;
35961;SDS011;22044;48.298;10.008;2023-08-21T13:37:27;6.65;;;5.78;;
35961;SDS011;22044;48.298;10.008;2023-08-21T13:40:12;6.38;;;5.75;;
35961;SDS011;22044;48.298;10.008;2023-08-21T13:43:00;8.68;;;6.15;;
35961;SDS011;22044;48.298;10.008;2023-08-21T13:45:47;8.13;;;5.93;;
35961;SDS011;22044;48.298;10.008;2023-08-21T13:48:32;7.22;;;6.30;;
35961;SDS011;22044;48.298;10.008;2023-08-21T13:51:18;7.15;;;6.50;;
35961;SDS011;22044;48.298;10.008;2023-08-21T13:54:05;7.60;;;6.32;;
35961;SDS011;22044;48.298;10.008;2023-08-21T13:56:51;7.00;;;6.28;;
35961;SDS011;22044;48.298;10.008;2023-08-21T13:59:36;6.18;;;5.57;;
35961;SDS011;22044;48.298;10.008;2023-08-21T14:02:22;6.18;;;5.57;;
35961;SDS011;22044;48.298;10.008;2023-08-21T14:05:08;9.35;;;6.13;;
35961;SDS011;22044;48.298;10.008;2023-08-21T14:07:54;8.02;;;5.95;;
35961;SDS011;22044;48.298;10.008;2023-08-21T14:10:41;7.50;;;5.82;;
35961;SDS011;22044;48.298;10.008;2023-08-21T14:13:27;6.75;;;6.07;;
35961;SDS011;22044;48.298;10.008;2023-08-21T14:16:12;6.47;;;5.90;;
35961;SDS011;22044;48.298;10.008;2023-08-21T14:18:58;8.45;;;6.10;;
35961;SDS011;22044;48.298;10.008;2023-08-21T14:21:44;7.75;;;5.72;;
35961;SDS011;22044;48.298;10.008;2023-08-21T14:24:29;6.65;;;5.90;;
35961;SDS011;22044;48.298;10.008;2023-08-21T14:27:16;8.73;;;6.35;;
35961;SDS011;22044;48.298;10.008;2023-08-21T14:30:03;8.10;;;5.60;;
35961;SDS011;22044;48.298;10.008;2023-08-21T14:32:51;7.13;;;6.10;;
35961;SDS011;22044;48.298;10.008;2023-08-21T14:35:37;6.80;;;6.10;;
35961;SDS011;22044;48.298;10.008;2023-08-21T14:38:22;7.40;;;6.07;;
35961;SDS011;22044;48.298;10.008;2023-08-21T14:41:08;6.78;;;6.05;;
35961;SDS011;22044;48.298;10.008;2023-08-21T14:43:55;6.63;;;5.93;;
35961;SDS011;22044;48.298;10.008;2023-08-21T14:46:40;6.57;;;5.82;;
35961;SDS011;22044;48.298;10.008;2023-08-21T14:49:26;7.50;;;5.88;;
35961;SDS011;22044;48.298;10.008;2023-08-21T14:52:12;6.60;;;5.50;;
35961;SDS011;22044;48.298;10.008;2023-08-21T14:54:57;7.15;;;5.57;;
35961;SDS011;22044;48.298;10.008;2023-08-21T14:57:43;7.05;;;6.30;;
35961;SDS011;22044;48.298;10.008;2023-08-21T15:00:30;6.80;;;5.20;;
35961;SDS011;22044;48.298;10.008;2023-08-21T15:03:15;7.43;;;5.78;;
35961;SDS011;22044;48.298;10.008;2023-08-21T15:06:02;6.93;;;5.50;;
35961;SDS011;22044;48.298;10.008;2023-08-21T15:08:48;6.40;;;5.72;;
35961;SDS011;22044;48.298;10.008;2023-08-21T15:11:34;7.38;;;5.82;;
35961;SDS011;22044;48.298;10.008;2023-08-21T15:14:20;6.15;;;5.47;;
35961;SDS011;22044;48.298;10.008;2023-08-21T15:17:07;6.00;;;5.50;;
35961;SDS011;22044;48.298;10.008;2023-08-21T15:19:55;5.93;;;5.30;;
35961;SDS011;22044;48.298;10.008;2023-08-21T15:22:40;5.90;;;5.30;;
35961;SDS011;22044;48.298;10.008;2023-08-21T15:25:26;9.32;;;5.70;;
35961;SDS011;22044;48.298;10.008;2023-08-21T15:28:12;8.98;;;5.60;;
35961;SDS011;22044;48.298;10.008;2023-08-21T15:30:58;7.15;;;5.95;;
35961;SDS011;22044;48.298;10.008;2023-08-21T15:33:45;6.65;;;5.53;;
35961;SDS011;22044;48.298;10.008;2023-08-21T15:36:32;6.60;;;5.35;;
35961;SDS011;22044;48.298;10.008;2023-08-21T15:39:18;6.53;;;5.93;;
35961;SDS011;22044;48.298;10.008;2023-08-21T15:42:04;8.82;;;5.78;;
35961;SDS011;22044;48.298;10.008;2023-08-21T15:44:49;5.80;;;5.22;;
35961;SDS011;22044;48.298;10.008;2023-08-21T15:47:35;5.80;;;5.30;;
35961;SDS011;22044;48.298;10.008;2023-08-21T15:50:22;7.10;;;5.75;;
35961;SDS011;22044;48.298;10.008;2023-08-21T15:53:08;6.28;;;5.68;;
35961;SDS011;22044;48.298;10.008;2023-08-21T15:55:53;6.15;;;5.55;;
35961;SDS011;22044;48.298;10.008;2023-08-21T15:58:39;7.72;;;6.15;;
35961;SDS011;22044;48.298;10.008;2023-08-21T16:01:26;10.77;;;6.18;;
35961;SDS011;22044;48.298;10.008;2023-08-21T16:04:12;6.60;;;5.93;;
35961;SDS011;22044;48.298;10.008;2023-08-21T16:06:59;8.27;;;6.15;;
35961;SDS011;22044;48.298;10.008;2023-08-21T16:09:44;6.10;;;5.57;;
35961;SDS011;22044;48.298;10.008;2023-08-21T16:12:30;7.80;;;6.25;;
35961;SDS011;22044;48.298;10.008;2023-08-21T16:15:15;9.18;;;6.55;;
35961;SDS011;22044;48.298;10.008;2023-08-21T16:18:01;5.82;;;5.22;;